createdAt,value
2022-10-01T00:02:21.708Z,10.19
2022-10-01T00:12:24.153Z,10.17
2022-10-01T00:22:28.173Z,10.06
2022-10-01T00:32:32.332Z,9.97
2022-10-01T00:42:36.189Z,10.04
2022-10-01T00:52:41.813Z,9.85
2022-10-01T01:02:45.876Z,9.77
2022-10-01T01:12:53.899Z,10.06
2022-10-01T01:23:04.717Z,10.27
2022-10-01T01:33:17.597Z,10.33
2022-10-01T01:43:21.811Z,10.29
2022-10-01T01:53:25.970Z,10.33
2022-10-01T02:03:30.263Z,10.11
2022-10-01T02:13:40.667Z,10.21
2022-10-01T02:23:45.347Z,10.28
2022-10-01T02:33:51.006Z,9.98
2022-10-01T02:43:56.239Z,9.80
2022-10-01T02:54:02.676Z,10.15
2022-10-01T03:04:05.134Z,10.07
2022-10-01T03:14:09.096Z,10.25
2022-10-01T03:24:11.520Z,10.13
2022-10-01T03:34:15.402Z,10.19
2022-10-01T03:44:18.200Z,9.83
2022-10-01T03:54:22.512Z,10.10
2022-10-01T04:04:25.691Z,10.06
2022-10-01T04:14:29.547Z,10.34
2022-10-01T04:24:32.127Z,10.09
2022-10-01T04:34:53.914Z,9.96
2022-10-01T04:44:57.304Z,9.86
2022-10-01T04:55:01.210Z,10.27
2022-10-01T05:05:04.435Z,10.25
2022-10-01T05:15:08.967Z,10.28
2022-10-01T05:25:11.415Z,10.24
2022-10-01T05:35:15.216Z,10.23
2022-10-01T05:45:22.970Z,10.47
2022-10-01T05:55:27.287Z,10.32
2022-10-01T06:05:30.360Z,10.34
2022-10-01T06:15:37.350Z,10.38
2022-10-01T06:25:40.213Z,10.41
2022-10-01T06:35:44.702Z,10.43
2022-10-01T06:45:47.238Z,10.55
2022-10-01T06:55:51.187Z,10.64
2022-10-01T07:05:53.663Z,10.80
2022-10-01T07:15:57.535Z,10.87
2022-10-01T07:25:59.983Z,11.06
2022-10-01T07:36:05.242Z,11.06
2022-10-01T07:46:07.804Z,11.01
2022-10-01T07:56:12.097Z,11.12
2022-10-01T08:06:15.121Z,11.07
2022-10-01T08:16:18.956Z,11.06
2022-10-01T08:26:21.466Z,11.08
2022-10-01T08:36:25.337Z,11.03
2022-10-01T08:46:29.220Z,11.00
2022-10-01T08:56:36.034Z,11.16
2022-10-01T09:06:38.735Z,11.20
2022-10-01T09:16:49.123Z,11.30
2022-10-01T09:26:52.638Z,11.34
2022-10-01T09:37:04.664Z,11.42
2022-10-01T09:47:16.841Z,11.39
2022-10-01T09:57:24.195Z,11.47
2022-10-01T10:07:26.798Z,11.35
2022-10-01T10:17:31.106Z,11.16
2022-10-01T10:27:33.685Z,11.07
2022-10-01T10:37:38.577Z,11.12
2022-10-01T10:47:45.180Z,11.13
2022-10-01T10:57:49.020Z,11.10
2022-10-01T11:07:54.187Z,10.98
2022-10-01T11:18:10.640Z,10.95
2022-10-01T11:28:19.793Z,11.00
2022-10-01T11:38:37.771Z,11.16
2022-10-01T11:48:42.268Z,11.22
2022-10-01T11:58:54.847Z,11.35
2022-10-01T12:09:00.932Z,11.40
2022-10-01T12:19:11.930Z,11.64
2022-10-01T12:29:18.006Z,11.78
2022-10-01T12:39:31.385Z,12.00
2022-10-01T12:49:38.171Z,12.36
2022-10-01T12:59:52.362Z,12.62
2022-10-01T13:10:01.212Z,12.75
2022-10-01T13:20:11.619Z,12.91
2022-10-01T13:30:17.782Z,12.98
2022-10-01T13:40:24.540Z,13.19
2022-10-01T13:50:27.197Z,13.25
2022-10-01T14:00:31.246Z,13.32
2022-10-01T14:10:56.921Z,13.41
2022-10-01T14:21:07.710Z,13.46
2022-10-01T14:31:13.993Z,13.34
2022-10-01T14:41:21.541Z,13.29
2022-10-01T14:51:25.384Z,13.33
2022-10-01T15:01:29.955Z,13.31
2022-10-01T15:11:34.801Z,13.30
2022-10-01T15:21:40.223Z,13.23
2022-10-01T15:31:43.601Z,13.22
2022-10-01T15:41:51.623Z,13.22
2022-10-01T15:52:14.138Z,13.18
2022-10-01T16:02:20.446Z,13.21
2022-10-01T16:12:23.632Z,13.17
2022-10-01T16:22:29.063Z,13.25
2022-10-01T16:32:31.529Z,13.25
2022-10-01T16:42:37.172Z,13.24
2022-10-01T16:52:40.135Z,13.17
2022-10-01T17:02:43.980Z,13.17
2022-10-01T17:12:47.714Z,13.17
2022-10-01T17:22:52.017Z,13.14
2022-10-01T17:32:55.251Z,13.07
2022-10-01T17:42:59.424Z,13.02
2022-10-01T17:53:01.909Z,13.05
2022-10-01T18:03:07.712Z,13.01
2022-10-01T18:13:10.198Z,13.06
2022-10-01T18:23:14.055Z,13.03
2022-10-01T18:33:16.552Z,13.06
2022-10-01T18:43:23.194Z,12.98
2022-10-01T18:53:33.143Z,12.98
2022-10-01T19:03:45.939Z,13.05
2022-10-01T19:13:53.397Z,13.12
2022-10-01T19:24:09.689Z,13.07
2022-10-01T19:34:17.594Z,12.99
2022-10-01T19:44:25.081Z,12.98
2022-10-01T19:54:31.251Z,13.00
2022-10-01T20:04:38.125Z,13.05
2022-10-01T20:15:04.350Z,12.99
2022-10-01T20:25:12.655Z,13.01
2022-10-01T20:35:22.926Z,13.03
2022-10-01T20:45:27.778Z,13.05
2022-10-01T20:55:38.777Z,12.93
2022-10-01T21:05:45.909Z,13.02
2022-10-01T21:15:54.207Z,13.04
2022-10-01T21:26:06.013Z,13.12
2022-10-01T21:36:11.987Z,13.12
2022-10-01T21:46:21.048Z,13.15
2022-10-01T21:56:35.869Z,13.15
2022-10-01T22:06:44.533Z,13.17
2022-10-01T22:16:50.684Z,13.24
2022-10-01T22:26:58.752Z,13.29
2022-10-01T22:37:02.926Z,13.31
2022-10-01T22:47:23.411Z,13.34
2022-10-01T22:57:35.150Z,13.30
2022-10-01T23:07:45.787Z,13.22
2022-10-01T23:17:55.022Z,13.25
2022-10-01T23:28:06.836Z,13.24
2022-10-01T23:38:17.891Z,13.20
2022-10-01T23:48:24.281Z,13.18
2022-10-01T23:58:29.000Z,13.22
